Latest Weather Observations for Oakey

IDQ60801

Issued at 2:52 pm EST Monday 23 September 2019 (issued every 10 minutes, with the page automatically refreshed every 10 minutes)

About weather observations | Map of weather stations | Latest weather observations for QLD | Other Formats
Station Details ID: 041359 Name: OAKEY AERO Lat: -27.40 Lon: 151.74 Height: 405.69 m
Data from the previous 72 hours. | See also: Recent months at Oakey
Date/Time
EST
Temp
°C
App
Temp
°C
Dew
Point
°C
Rel
Hum
%
Delta-T
°C
Wind Press
QNH
hPa
Press
MSL
hPa
Rain since
9am
mm
Dir  Spd
km/h
Gust
km/h
Spd
kts
Gust
kts
23/02:30pm 28.7 23.9 8.9 29 11.1 W 24 39 13 21 1020.4 1019.7 0.0
23/02:00pm 28.4 24.3 8.7 29 11.0 WSW 20 32 11 17 1020.5 1019.8 0.0
23/01:30pm 27.7 23.7 9.0 31 10.5 WSW 20 32 11 17 1021.2 1020.5 0.0
23/01:00pm 27.7 22.9 9.0 31 10.4 W 24 35 13 19 1021.6 1020.9 0.0
23/12:30pm 27.0 22.7 9.4 33 9.9 W 22 39 12 21 1022.2 1021.5 0.0
23/12:00pm 26.7 22.4 9.5 34 9.6 WSW 22 46 12 25 1022.7 1022.0 0.0
23/11:30am 26.0 21.5 10.2 37 8.9 W 24 37 13 20 1023.4 1022.7 0.0
23/11:00am 25.8 21.0 10.4 38 8.7 W 26 41 14 22 1023.7 1023.0 0.0
23/10:30am 25.0 20.7 10.8 41 8.1 WNW 24 37 13 20 1024.1 1023.4 0.0
23/10:00am 24.6 19.6 10.8 42 7.8 WNW 28 37 15 20 1024.6 1023.9 0.0
23/09:30am 24.5 20.3 11.1 43 7.7 WNW 24 41 13 22 1025.0 1024.3 0.0
23/09:00am 21.9 18.0 9.4 45 6.8 NW 20 30 11 16 1025.5 1024.9 0.0
23/08:30am 21.7 16.3 8.2 42 7.2 WNW 26 32 14 17 1025.5 1024.9 0.0
23/08:00am 19.2 17.6 10.2 56 4.9 NNW 9 11 5 6 1025.5 1024.9 0.0
23/07:30am 17.2 15.8 9.6 61 4.1 N 7 9 4 5 1025.4 1024.8 0.0
23/07:00am 16.2 15.4 9.6 65 3.5 N 4 6 2 3 1025.4 1024.8 0.0
23/06:30am 14.3 13.7 10.5 78 2.0 SE 4 6 2 3 1025.3 1024.7 0.0
23/06:00am 11.4 10.7 8.6 83 1.4 SSE 2 6 1 3 1025.3 1024.7 0.0
23/05:30am 11.4 9.8 7.9 79 1.7 S 6 7 3 4 1024.8 1024.1 0.0
23/05:00am 12.2 10.6 8.7 79 1.8 WSW 7 9 4 5 1024.5 1023.8 0.0
23/04:30am 12.9 11.1 9.5 80 1.8 SSW 9 13 5 7 1024.1 1023.4 0.0
23/04:00am 14.3 13.3 11.1 81 1.7 SE 7 9 4 5 1023.6 1022.9 0.0
23/03:30am 13.9 12.4 10.7 81 1.7 ESE 9 11 5 6 1023.2 1022.6 0.0
23/03:00am 13.4 11.1 9.1 75 2.2 ENE 11 11 6 6 1022.8 1022.1 0.0
23/02:30am 14.7 12.9 10.7 77 2.2 ENE 11 11 6 6 1023.0 1022.3 0.0
23/02:00am 15.5 14.5 10.9 74 2.5 E 7 7 4 4 1023.4 1022.7 0.0
23/01:30am 14.9 13.2 9.7 71 2.7 ENE 9 11 5 6 1023.5 1022.8 0.0
23/01:00am 15.5 13.5 10.1 70 2.9 NE 11 15 6 8 1023.5 1022.8 0.0
23/12:30am 16.5 14.7 11.0 70 3.0 ENE 11 13 6 7 1023.9 1023.2 0.0
23/12:00am 16.8 15.0 10.9 68 3.2 E 11 13 6 7 1024.0 1023.3 0.0
 
Date/Time
EST
Temp
°C
App
Temp
°C
Dew
Point
°C
Rel
Hum
%
Delta-T
°C
Wind Press
QNH
hPa
Press
MSL
hPa
Rain since
9am
mm
Dir  Spd
km/h
Gust
km/h
Spd
kts
Gust
kts
22/11:30pm 18.1 16.0 11.2 64 3.8 NE 13 15 7 8 1024.1 1023.4 0.0
22/11:00pm 18.5 16.1 11.3 63 4.0 NE 15 17 8 9 1024.0 1023.3 0.0
22/10:30pm 18.9 17.3 11.5 62 4.1 NE 11 15 6 8 1024.1 1023.4 0.0
22/10:00pm 19.4 16.9 11.2 59 4.6 NE 15 19 8 10 1024.0 1023.3 0.0
22/09:30pm 19.2 16.7 11.0 59 4.6 ENE 15 19 8 10 1024.0 1023.3 0.0
22/09:00pm 19.1 15.9 8.4 50 5.6 ENE 15 17 8 9 1024.1 1023.4 0.0
22/08:30pm 20.4 16.6 7.7 44 6.7 E 17 20 9 11 1024.1 1023.4 0.0
22/08:00pm 20.2 18.8 5.4 38 7.4 SSE 2 6 1 3 1023.8 1023.1 0.0
22/07:30pm 20.8 18.7 6.0 38 7.6 SE 6 11 3 6 1023.6 1022.9 0.0
22/07:00pm 22.0 19.1 6.3 36 8.1 NE 11 13 6 7 1023.2 1022.6 0.0
22/06:30pm 22.4 19.7 5.4 33 8.7 NE 9 13 5 7 1023.0 1022.3 0.0
22/06:00pm 25.2 24.4 6.4 30 9.9 CALM 0 0 0 0 1022.7 1022.0 0.0
22/05:30pm 26.3 23.9 6.9 29 10.4 NNW 9 13 5 7 1022.6 1021.9 0.0
22/05:00pm 27.2 24.8 7.1 28 10.8 NW 9 17 5 9 1022.4 1021.7 0.0
22/04:30pm 27.7 26.2 7.0 27 11.2 NNW 4 11 2 6 1022.3 1021.6 0.0
22/04:00pm 27.9 25.4 6.6 26 11.4 NNE 9 15 5 8 1022.2 1021.5 0.0
22/03:30pm 27.7 25.9 7.0 27 11.2 NE 6 11 3 6 1022.3 1021.6 0.0
22/03:00pm 28.1 26.2 7.4 27 11.3 NW 7 13 4 7 1022.3 1021.6 0.0
22/02:30pm 27.8 24.3 7.1 27 11.2 N 15 24 8 13 1022.5 1021.8 0.0
22/02:00pm 27.5 24.4 7.4 28 10.9 WSW 13 20 7 11 1022.9 1022.2 0.0
22/01:30pm 26.7 24.0 7.2 29 10.5 NW 11 24 6 13 1023.2 1022.6 0.0
22/01:00pm 26.5 24.3 8.0 31 10.1 E 9 17 5 9 1023.7 1023.0 0.0
22/12:30pm 26.5 24.2 7.5 30 10.3 NNW 9 15 5 8 1024.2 1023.5 0.0
22/12:00pm 26.3 23.4 8.3 32 9.8 NNW 13 22 7 12 1024.7 1024.0 0.0
22/11:30am 25.5 22.5 9.3 36 9.0 NNW 15 24 8 13 1025.1 1024.4 0.0
22/11:00am 24.7 21.8 9.8 39 8.3 N 15 22 8 12 1025.3 1024.7 0.0
22/10:30am 24.3 21.2 10.2 41 7.9 N 17 28 9 15 1025.6 1025.0 0.0
22/10:00am 23.2 20.2 10.6 45 7.1 N 17 26 9 14 1025.8 1025.2 0.0
22/09:30am 22.4 19.2 11.2 49 6.3 N 19 26 10 14 1026.1 1025.4 0.0
22/09:00am 21.3 18.0 11.6 54 5.5 NNE 20 28 11 15 1026.2 1025.5 0.0
22/08:30am 20.9 18.5 12.6 59 4.8 NNE 17 24 9 13 1026.2 1025.5 0.0
22/08:00am 19.5 16.7 12.5 64 4.0 NNE 19 22 10 12 1026.3 1025.6 0.0
22/07:30am 18.2 15.8 12.6 70 3.2 NNE 17 24 9 13 1026.1 1025.4 0.0
22/07:00am 16.9 16.1 13.0 78 2.2 NE 9 13 5 7 1025.8 1025.2 0.0
22/06:30am 15.2 14.4 12.9 86 1.3 ENE 9 11 5 6 1025.5 1024.9 0.0
22/06:00am 12.5 11.1 10.9 90 0.8 NE 9 17 5 9 1025.3 1024.7 0.0
22/05:30am 12.6 10.8 10.7 88 1.0 NE 11 13 6 7 1025.1 1024.4 0.0
22/05:00am 12.8 12.0 11.0 89 1.0 ENE 6 9 3 5 1024.9 1024.2 0.0
22/04:30am 13.0 11.3 11.1 88 1.0 NE 11 13 6 7 1024.6 1023.9 0.0
22/04:00am 14.1 13.3 11.8 86 1.3 NE 7 9 4 5 1024.4 1023.7 0.0
22/03:30am 14.8 13.7 11.9 83 1.6 NE 9 13 5 7 1024.1 1023.4 0.0
22/03:00am 15.0 13.3 12.3 84 1.5 ENE 13 19 7 10 1023.9 1023.2 0.0
22/02:30am 15.1 13.3 12.2 83 1.6 NE 13 15 7 8 1024.2 1023.5 0.0
22/02:00am 15.6 13.6 12.7 83 1.6 NE 15 20 8 11 1024.4 1023.7 0.0
22/01:30am 15.4 13.1 12.9 85 1.4 ENE 17 20 9 11 1024.4 1023.7 0.0
22/01:00am 15.6 12.9 12.9 84 1.5 ENE 19 24 10 13 1024.5 1023.8 0.0
22/12:30am 15.9 13.1 13.2 84 1.5 ENE 20 26 11 14 1024.5 1023.8 0.0
22/12:00am 16.0 13.2 13.3 84 1.5 ENE 20 28 11 15 1024.6 1023.9 0.0
 
Date/Time
EST
Temp
°C
App
Temp
°C
Dew
Point
°C
Rel
Hum
%
Delta-T
°C
Wind Press
QNH
hPa
Press
MSL
hPa
Rain since
9am
mm
Dir  Spd
km/h
Gust
km/h
Spd
kts
Gust
kts
21/11:30pm 16.3 13.1 13.0 81 1.9 ENE 22 26 12 14 1024.6 1023.9 0.0
21/11:00pm 16.9 14.0 13.0 78 2.2 ENE 20 26 11 14 1024.7 1024.0 0.0
21/10:30pm 17.2 14.5 12.9 76 2.4 ENE 19 26 10 14 1024.6 1023.9 0.0
21/10:00pm 17.7 14.5 13.2 75 2.6 ENE 22 28 12 15 1024.5 1023.8 0.0
21/09:30pm 18.2 14.6 13.1 72 2.9 ENE 24 32 13 17 1024.3 1023.6 0.0
21/09:00pm 18.8 14.7 12.8 68 3.4 ENE 26 35 14 19 1024.2 1023.5 0.0
21/08:30pm 19.5 15.3 12.3 63 4.1 ENE 26 33 14 18 1023.8 1023.1 0.0
21/08:00pm 20.0 16.1 12.0 60 4.5 ENE 24 33 13 18 1023.6 1022.9 0.0
21/07:30pm 20.6 15.8 11.5 56 5.1 ENE 28 37 15 20 1023.1 1022.4 0.0
21/07:00pm 21.3 16.5 11.6 54 5.5 ENE 28 39 15 21 1022.7 1022.0 0.0
21/06:30pm 22.3 17.9 10.5 47 6.6 ENE 24 30 13 16 1022.4 1021.7 0.0
21/06:00pm 23.3 18.7 9.7 42 7.5 ENE 24 30 13 16 1021.9 1021.2 0.0
21/05:30pm 24.4 20.1 7.1 33 9.2 NE 19 24 10 13 1021.7 1021.0 0.0
21/05:00pm 25.2 21.3 6.9 31 9.7 NE 17 24 9 13 1021.5 1020.8 0.0
21/04:30pm 26.2 21.7 6.8 29 10.4 NE 20 32 11 17 1021.3 1020.6 0.0
21/04:00pm 25.4 20.9 6.1 29 10.1 NNE 19 26 10 14 1021.2 1020.5 0.0
21/03:30pm 26.4 21.2 7.4 30 10.3 NNE 24 32 13 17 1021.3 1020.6 0.0
21/03:00pm 27.4 22.6 7.3 28 10.9 N 22 28 12 15 1021.6 1020.9 0.0
21/02:30pm 26.0 21.1 7.1 30 10.2 NNE 22 32 12 17 1021.8 1021.1 0.0
21/02:00pm 27.1 23.4 8.0 30 10.4 N 17 24 9 13 1022.0 1021.3 0.0
21/01:30pm 24.7 20.4 7.8 34 9.1 NNE 20 32 11 17 1022.4 1021.7 0.0
21/01:00pm 24.3 20.2 8.7 37 8.5 NNE 20 28 11 15 1023.0 1022.3 0.0
21/12:30pm 25.6 21.9 9.4 36 9.0 NE 19 32 10 17 1023.6 1022.9 0.0
21/12:00pm 24.2 20.3 9.4 39 8.2 NNE 20 35 11 19 1024.1 1023.4 0.0
21/11:30am 24.2 20.0 9.8 40 8.0 NNE 22 35 12 19 1024.5 1023.8 0.0
21/11:00am 23.3 19.2 11.4 47 6.8 NE 24 32 13 17 1025.2 1024.5 0.0
21/10:30am 22.2 17.4 10.4 47 6.6 NE 26 37 14 20 1025.6 1025.0 0.0
21/10:00am 22.8 17.4 12.1 51 6.1 NNE 32 43 17 23 1026.0 1025.3 0.0
21/09:30am 21.9 16.9 12.2 54 5.6 NE 30 41 16 22 1026.2 1025.5 0.0
21/09:00am 20.9 16.1 12.8 60 4.7 NE 30 35 16 19 1026.4 1025.7 0.0
21/08:30am 20.6 16.4 13.6 64 4.1 NE 28 35 15 19 1026.4 1025.7 0.0
21/08:00am 19.5 15.6 13.4 68 3.5 NE 26 33 14 18 1026.3 1025.6 0.0
21/07:30am 18.8 16.3 14.1 74 2.8 ENE 20 30 11 16 1026.4 1025.7 0.0
21/07:00am 16.5 15.4 14.2 86 1.3 E 13 17 7 9 1026.3 1025.6 0.0
21/06:30am 14.2 13.2 13.4 95 0.5 E 11 13 6 7 1025.8 1025.2 0.0
21/06:00am 12.9 11.5 12.3 96 0.3 E 11 13 6 7 1025.7 1025.1 0.0
21/05:30am 12.8 11.0 12.0 95 0.4 ENE 13 15 7 8 1025.4 1024.8 0.0
21/05:00am 13.3 11.6 12.5 95 0.4 E 13 17 7 9 1025.2 1024.5 0.0
21/04:30am 12.6 11.4 11.5 93 0.6 E 9 9 5 5 1025.0 1024.3 0.0
21/04:00am 13.2 12.1 11.9 92 0.7 E 9 11 5 6 1024.8 1024.1 0.0
21/03:30am 13.6 12.2 12.2 91 0.8 NE 11 15 6 8 1024.6 1023.9 0.0
21/03:00am 14.4 12.4 12.8 90 0.9 NE 15 17 8 9 1024.5 1023.8 0.0
21/02:30am 14.1 12.4 12.5 90 0.9 NE 13 15 7 8 1024.5 1023.8 0.0
21/02:00am 14.9 12.6 13.1 89 1.0 ENE 17 24 9 13 1024.4 1023.7 0.0
21/01:30am 14.6 12.9 12.5 87 1.2 ENE 13 17 7 9 1024.4 1023.7 0.0
21/01:00am 15.0 13.0 12.7 86 1.3 ENE 15 19 8 10 1024.7 1024.0 0.0
21/12:30am 14.9 12.7 12.2 84 1.5 ENE 15 19 8 10 1024.8 1024.1 0.0
21/12:00am 14.8 13.0 12.1 84 1.5 ENE 13 15 7 8 1025.0 1024.3 0.0
 
Date/Time
EST
Temp
°C
App
Temp
°C
Dew
Point
°C
Rel
Hum
%
Delta-T
°C
Wind Press
QNH
hPa
Press
MSL
hPa
Rain since
9am
mm
Dir  Spd
km/h
Gust
km/h
Spd
kts
Gust
kts
20/11:30pm 15.6 13.1 12.4 81 1.8 ENE 17 22 9 12 1025.1 1024.4 0.0
20/11:00pm 15.8 12.9 12.2 79 2.0 ENE 19 26 10 14 1025.1 1024.4 0.0
20/10:30pm 16.2 13.2 12.4 78 2.1 ENE 20 26 11 14 1025.0 1024.3 0.0
20/10:00pm 16.5 13.4 12.3 76 2.3 ENE 20 26 11 14 1025.0 1024.3 0.0
20/09:30pm 17.1 14.2 13.0 77 2.3 ENE 20 28 11 15 1024.7 1024.0 0.0
20/09:00pm 17.6 14.7 12.9 74 2.7 ENE 20 26 11 14 1024.7 1024.0 0.0
20/08:30pm 18.1 15.1 12.1 68 3.4 ENE 19 24 10 13 1024.5 1023.8 0.0
20/08:00pm 18.9 14.9 11.9 64 3.9 ENE 24 30 13 16 1024.5 1023.8 0.0
20/07:30pm 19.6 14.8 11.6 60 4.5 ENE 28 37 15 20 1024.0 1023.3 0.0
20/07:00pm 20.2 14.6 11.4 57 4.9 ENE 32 41 17 22 1023.5 1022.8 0.0
20/06:30pm 20.8 16.5 10.6 52 5.7 E 24 30 13 16 1023.0 1022.3 0.0
20/06:00pm 21.8 16.3 10.6 49 6.2 ENE 30 35 16 19 1022.6 1021.9 0.0
20/05:30pm 23.2 18.3 8.5 39 8.0 E 24 35 13 19 1021.9 1021.2 0.0
20/05:00pm 23.7 19.3 6.5 33 9.0 ENE 19 24 10 13 1021.5 1020.8 0.0
20/04:30pm 24.0 19.0 6.3 32 9.3 E 22 28 12 15 1021.4 1020.7 0.0
20/04:00pm 24.7 19.9 5.5 29 9.9 ENE 20 28 11 15 1021.3 1020.6 0.0
20/03:30pm 24.8 20.6 5.6 29 10.0 E 17 26 9 14 1021.3 1020.6 0.0
20/03:00pm 25.8 21.1 5.9 28 10.4 E 20 30 11 16 1021.3 1020.6 0.0

Other formats

Comma delimited format used in spreadsheet applications
http://www.bom.gov.au/fwo/IDQ60801/IDQ60801.94552.axf

JavaScript Object Notation format (JSON) in row-major order
http://www.bom.gov.au/fwo/IDQ60801/IDQ60801.94552.json

Data quality

Most of these data are generated automatically and are frequently updated. Quality checks on data are not normally performed. It is possible for incorrect values to appear. Refer to information at About Latest Weather Observations and please check the disclaimer before using these data.